EWG335 LIML-LIRA
Flight info
| Callsign | EWG335 |
|---|---|
| Flight time | 0h 46m |
| Altitude | 33000 |
| Route | ABSEM6AXLOGDI7A/35 LOGDI DCT LOMED DCT KUGIX DCT AMTEL DCT GITOD |
| Aircraft | A320/M-SDE3FGHIRWY/LB1 |
Departure
| Time | 2026-05-01 10:01 |
|---|---|
| Airport | Milano Linate Airport (LIML) |
Arrival
| Time | 2026-05-01 10:47 |
|---|---|
| Airport | Ciampino–G. B. Pastine International Airport (LIRA) |
| Time | Latitude | Longitude | Altitude | Speed | Heading |
|---|---|---|---|---|---|
| 2026-05-01 09:45 | 45.45976 | 9.28030 | 360 ft | 0 kts | 360° |
| 2026-05-01 09:52 | 45.45966 | 9.28030 | 364 ft | 4 kts | 355° |
| 2026-05-01 09:52 | 45.45945 | 9.28040 | 362 ft | 4 kts | 286° |
| 2026-05-01 09:52 | 45.45943 | 9.28050 | 360 ft | 0 kts | 273° |
| 2026-05-01 09:53 | 45.45916 | 9.28025 | 366 ft | 12 kts | 205° |
| 2026-05-01 09:53 | 45.45905 | 9.28007 | 361 ft | 0 kts | 244° |
| 2026-05-01 09:54 | 45.45899 | 9.28000 | 360 ft | 6 kts | 222° |
| 2026-05-01 09:54 | 45.45814 | 9.27987 | 360 ft | 16 kts | 179° |
| 2026-05-01 09:54 | 45.45696 | 9.27981 | 360 ft | 20 kts | 183° |
| 2026-05-01 09:54 | 45.45534 | 9.27980 | 360 ft | 27 kts | 179° |
| 2026-05-01 09:55 | 45.45338 | 9.27952 | 360 ft | 28 kts | 217° |
| 2026-05-01 09:55 | 45.45220 | 9.27874 | 360 ft | 19 kts | 186° |
| 2026-05-01 09:55 | 45.45065 | 9.27890 | 362 ft | 24 kts | 172° |
| 2026-05-01 09:55 | 45.44894 | 9.27928 | 362 ft | 27 kts | 171° |
| 2026-05-01 09:56 | 45.44698 | 9.27958 | 360 ft | 30 kts | 174° |
| 2026-05-01 09:56 | 45.44479 | 9.27980 | 365 ft | 33 kts | 176° |
| 2026-05-01 09:56 | 45.44254 | 9.28005 | 360 ft | 32 kts | 175° |
| 2026-05-01 09:56 | 45.44030 | 9.28028 | 363 ft | 32 kts | 176° |
| 2026-05-01 09:57 | 45.43808 | 9.28051 | 365 ft | 32 kts | 175° |
| 2026-05-01 09:57 | 45.43589 | 9.28074 | 364 ft | 26 kts | 175° |
| 2026-05-01 09:57 | 45.43450 | 9.28019 | 361 ft | 20 kts | 249° |
| 2026-05-01 09:57 | 45.43443 | 9.27969 | 361 ft | 0 kts | 265° |
| 2026-05-01 09:58 | 45.43440 | 9.27926 | 360 ft | 11 kts | 265° |
| 2026-05-01 09:58 | 45.43491 | 9.27816 | 363 ft | 20 kts | 352° |
| 2026-05-01 09:58 | 45.43581 | 9.27805 | 365 ft | 0 kts | 355° |
| 2026-05-01 10:00 | 45.43671 | 9.27797 | 365 ft | 46 kts | 356° |
| 2026-05-01 10:00 | 45.44004 | 9.27761 | 360 ft | 97 kts | 356° |
| 2026-05-01 10:00 | 45.44212 | 9.27739 | 360 ft | 115 kts | 356° |
| 2026-05-01 10:00 | 45.44944 | 9.27657 | 370 ft | 157 kts | 356° |
| 2026-05-01 10:01 | 45.46169 | 9.27572 | 944 ft | 165 kts | 6° |
| 2026-05-01 10:01 | 45.47304 | 9.27742 | 1737 ft | 165 kts | 9° |
| 2026-05-01 10:01 | 45.48496 | 9.27919 | 2404 ft | 183 kts | 8° |
| 2026-05-01 10:01 | 45.49780 | 9.28102 | 3160 ft | 188 kts | 10° |
| 2026-05-01 10:02 | 45.51067 | 9.28315 | 3857 ft | 188 kts | 14° |
| 2026-05-01 10:02 | 45.52275 | 9.29051 | 4577 ft | 187 kts | 35° |
| 2026-05-01 10:02 | 45.53193 | 9.30309 | 5203 ft | 188 kts | 54° |
| 2026-05-01 10:02 | 45.53768 | 9.32004 | 5786 ft | 196 kts | 72° |
| 2026-05-01 10:03 | 45.53826 | 9.34024 | 6109 ft | 215 kts | 101° |
| 2026-05-01 10:03 | 45.53006 | 9.35937 | 6383 ft | 245 kts | 139° |
| 2026-05-01 10:03 | 45.51588 | 9.37456 | 6826 ft | 269 kts | 141° |
| 2026-05-01 10:03 | 45.50034 | 9.39068 | 7559 ft | 278 kts | 142° |
| 2026-05-01 10:04 | 45.48455 | 9.40691 | 8471 ft | 282 kts | 142° |
| 2026-05-01 10:04 | 45.46861 | 9.42327 | 9416 ft | 284 kts | 142° |
| 2026-05-01 10:04 | 45.45248 | 9.43988 | 10148 ft | 288 kts | 141° |
| 2026-05-01 10:04 | 45.43593 | 9.45701 | 10652 ft | 306 kts | 141° |
| 2026-05-01 10:05 | 45.41813 | 9.47553 | 10977 ft | 326 kts | 141° |
| 2026-05-01 10:05 | 45.39955 | 9.49484 | 11655 ft | 334 kts | 141° |
| 2026-05-01 10:05 | 45.38061 | 9.51449 | 12390 ft | 339 kts | 141° |
| 2026-05-01 10:05 | 45.36141 | 9.53437 | 13151 ft | 345 kts | 141° |
| 2026-05-01 10:06 | 45.34186 | 9.55460 | 13892 ft | 350 kts | 140° |
| 2026-05-01 10:06 | 45.32206 | 9.57507 | 14568 ft | 354 kts | 140° |
| 2026-05-01 10:06 | 45.30208 | 9.59571 | 15253 ft | 357 kts | 140° |
| 2026-05-01 10:06 | 45.28197 | 9.61649 | 15953 ft | 359 kts | 140° |
| 2026-05-01 10:07 | 45.26168 | 9.63746 | 16675 ft | 361 kts | 140° |
| 2026-05-01 10:07 | 45.24125 | 9.65850 | 17377 ft | 364 kts | 140° |
| 2026-05-01 10:07 | 45.22068 | 9.67965 | 18085 ft | 366 kts | 139° |
| 2026-05-01 10:07 | 45.20002 | 9.70090 | 18739 ft | 369 kts | 139° |
| 2026-05-01 10:08 | 45.15805 | 9.74407 | 19815 ft | 376 kts | 139° |
| 2026-05-01 10:08 | 45.13669 | 9.76597 | 20329 ft | 380 kts | 139° |
| 2026-05-01 10:08 | 45.11516 | 9.78803 | 20837 ft | 385 kts | 139° |
| 2026-05-01 10:09 | 45.09330 | 9.81036 | 21340 ft | 389 kts | 139° |
| 2026-05-01 10:09 | 45.07129 | 9.83281 | 21831 ft | 393 kts | 139° |
| 2026-05-01 10:09 | 45.04900 | 9.85559 | 22304 ft | 397 kts | 139° |
| 2026-05-01 10:09 | 45.02653 | 9.87857 | 22786 ft | 401 kts | 139° |
| 2026-05-01 10:10 | 45.00384 | 9.90179 | 23263 ft | 405 kts | 139° |
| 2026-05-01 10:10 | 44.98089 | 9.92520 | 23755 ft | 408 kts | 139° |
| 2026-05-01 10:10 | 44.93438 | 9.97246 | 24565 ft | 415 kts | 139° |
| 2026-05-01 10:11 | 44.91089 | 9.99634 | 24960 ft | 418 kts | 139° |
| 2026-05-01 10:11 | 44.88725 | 10.02038 | 25363 ft | 421 kts | 139° |
| 2026-05-01 10:11 | 44.86351 | 10.04470 | 25755 ft | 423 kts | 139° |
| 2026-05-01 10:11 | 44.83967 | 10.06930 | 26133 ft | 426 kts | 139° |
| 2026-05-01 10:12 | 44.81569 | 10.09413 | 26514 ft | 429 kts | 139° |
| 2026-05-01 10:12 | 44.79971 | 10.11067 | 26765 ft | 431 kts | 139° |
| 2026-05-01 10:12 | 44.74266 | 10.16945 | 27618 ft | 438 kts | 139° |
| 2026-05-01 10:13 | 44.71790 | 10.19477 | 27985 ft | 441 kts | 139° |
| 2026-05-01 10:13 | 44.69302 | 10.22020 | 28320 ft | 444 kts | 139° |
| 2026-05-01 10:13 | 44.66797 | 10.24587 | 28683 ft | 447 kts | 139° |
| 2026-05-01 10:14 | 44.61746 | 10.29767 | 29348 ft | 453 kts | 139° |
| 2026-05-01 10:14 | 44.59180 | 10.32387 | 29684 ft | 456 kts | 139° |
| 2026-05-01 10:14 | 44.56606 | 10.35007 | 30008 ft | 459 kts | 139° |
| 2026-05-01 10:14 | 44.54010 | 10.37645 | 30324 ft | 462 kts | 139° |
| 2026-05-01 10:15 | 44.51395 | 10.40303 | 30590 ft | 465 kts | 139° |
| 2026-05-01 10:15 | 44.48768 | 10.42969 | 30856 ft | 467 kts | 139° |
| 2026-05-01 10:15 | 44.47024 | 10.44738 | 31032 ft | 469 kts | 139° |
| 2026-05-01 10:15 | 44.44378 | 10.47418 | 31306 ft | 471 kts | 139° |
| 2026-05-01 10:16 | 44.41719 | 10.50113 | 31564 ft | 473 kts | 139° |
| 2026-05-01 10:16 | 44.39047 | 10.52818 | 31838 ft | 474 kts | 139° |
| 2026-05-01 10:16 | 44.33706 | 10.58200 | 32613 ft | 472 kts | 139° |
| 2026-05-01 10:17 | 44.31046 | 10.60880 | 33001 ft | 472 kts | 140° |
| 2026-05-01 10:17 | 44.25738 | 10.66216 | 33307 ft | 463 kts | 140° |
| 2026-05-01 10:17 | 44.23127 | 10.68788 | 33306 ft | 458 kts | 143° |
| 2026-05-01 10:18 | 44.14954 | 10.75656 | 33312 ft | 458 kts | 146° |
| 2026-05-01 10:19 | 44.09436 | 10.80106 | 33312 ft | 459 kts | 146° |
| 2026-05-01 10:19 | 44.03918 | 10.84588 | 33321 ft | 459 kts | 145° |
| 2026-05-01 10:20 | 43.95668 | 10.91354 | 33327 ft | 459 kts | 146° |
| 2026-05-01 10:20 | 43.90163 | 10.95852 | 33321 ft | 459 kts | 146° |
| 2026-05-01 10:21 | 43.81891 | 11.02585 | 33314 ft | 460 kts | 146° |
| 2026-05-01 10:22 | 43.73590 | 11.09307 | 33319 ft | 461 kts | 146° |
| 2026-05-01 10:23 | 43.65268 | 11.16038 | 33323 ft | 463 kts | 146° |
| 2026-05-01 10:23 | 43.56910 | 11.22764 | 33326 ft | 464 kts | 146° |
| 2026-05-01 10:24 | 43.45746 | 11.31716 | 33323 ft | 464 kts | 147° |
| 2026-05-01 10:25 | 43.40133 | 11.36219 | 32523 ft | 473 kts | 147° |
| 2026-05-01 10:25 | 43.34471 | 11.40741 | 31409 ft | 468 kts | 147° |
| 2026-05-01 10:26 | 43.31652 | 11.42976 | 30854 ft | 466 kts | 147° |
| 2026-05-01 10:26 | 43.28894 | 11.45161 | 30326 ft | 464 kts | 147° |
| 2026-05-01 10:26 | 43.23368 | 11.49542 | 29246 ft | 455 kts | 147° |
| 2026-05-01 10:27 | 43.17947 | 11.53851 | 28262 ft | 445 kts | 147° |
| 2026-05-01 10:27 | 43.12631 | 11.58059 | 27268 ft | 437 kts | 147° |
| 2026-05-01 10:28 | 43.10003 | 11.60134 | 26761 ft | 434 kts | 147° |
| 2026-05-01 10:28 | 43.04809 | 11.64230 | 25724 ft | 428 kts | 147° |
| 2026-05-01 10:28 | 43.02241 | 11.66254 | 25224 ft | 426 kts | 148° |
| 2026-05-01 10:29 | 42.97149 | 11.70256 | 24334 ft | 418 kts | 148° |
| 2026-05-01 10:29 | 42.94644 | 11.72222 | 23862 ft | 415 kts | 148° |
| 2026-05-01 10:30 | 42.89654 | 11.76136 | 22772 ft | 411 kts | 148° |
| 2026-05-01 10:30 | 42.84729 | 11.79995 | 21774 ft | 406 kts | 148° |
| 2026-05-01 10:31 | 42.79864 | 11.83799 | 20867 ft | 401 kts | 149° |
| 2026-05-01 10:31 | 42.75060 | 11.87547 | 19979 ft | 396 kts | 148° |
| 2026-05-01 10:32 | 42.70311 | 11.91252 | 19145 ft | 391 kts | 149° |
| 2026-05-01 10:32 | 42.67958 | 11.93080 | 18725 ft | 389 kts | 149° |
| 2026-05-01 10:32 | 42.63292 | 11.96700 | 17834 ft | 383 kts | 149° |
| 2026-05-01 10:33 | 42.58701 | 12.00261 | 16984 ft | 377 kts | 149° |
| 2026-05-01 10:33 | 42.54176 | 12.03759 | 16197 ft | 372 kts | 149° |
| 2026-05-01 10:34 | 42.51948 | 12.05482 | 15569 ft | 366 kts | 149° |
| 2026-05-01 10:34 | 42.49746 | 12.07185 | 14859 ft | 362 kts | 149° |
| 2026-05-01 10:34 | 42.47572 | 12.08867 | 14181 ft | 358 kts | 149° |
| 2026-05-01 10:35 | 42.43320 | 12.12143 | 13060 ft | 341 kts | 148° |
| 2026-05-01 10:35 | 42.41293 | 12.13703 | 12663 ft | 330 kts | 148° |
| 2026-05-01 10:35 | 42.39333 | 12.15211 | 12260 ft | 319 kts | 148° |
| 2026-05-01 10:35 | 42.37429 | 12.16671 | 11870 ft | 310 kts | 148° |
| 2026-05-01 10:36 | 42.33782 | 12.19467 | 11113 ft | 298 kts | 148° |
| 2026-05-01 10:36 | 42.31977 | 12.20856 | 10736 ft | 300 kts | 148° |
| 2026-05-01 10:36 | 42.30172 | 12.22239 | 10490 ft | 296 kts | 148° |
| 2026-05-01 10:37 | 42.28395 | 12.23593 | 10254 ft | 292 kts | 148° |
| 2026-05-01 10:37 | 42.24927 | 12.26224 | 9947 ft | 279 kts | 149° |
| 2026-05-01 10:37 | 42.23240 | 12.27509 | 9657 ft | 278 kts | 148° |
| 2026-05-01 10:38 | 42.21555 | 12.28792 | 9312 ft | 278 kts | 148° |
| 2026-05-01 10:38 | 42.19870 | 12.30076 | 8995 ft | 278 kts | 148° |
| 2026-05-01 10:38 | 42.18185 | 12.31358 | 8606 ft | 278 kts | 148° |
| 2026-05-01 10:38 | 42.16506 | 12.32634 | 8251 ft | 277 kts | 148° |
| 2026-05-01 10:39 | 42.14826 | 12.33911 | 7881 ft | 276 kts | 148° |
| 2026-05-01 10:39 | 42.13157 | 12.35180 | 7539 ft | 275 kts | 148° |
| 2026-05-01 10:39 | 42.11492 | 12.36445 | 7189 ft | 274 kts | 148° |
| 2026-05-01 10:39 | 42.09836 | 12.37702 | 6829 ft | 273 kts | 148° |
| 2026-05-01 10:40 | 42.09390 | 12.38034 | 6747 ft | 272 kts | 151° |
| 2026-05-01 10:40 | 42.08274 | 12.38788 | 6503 ft | 270 kts | 148° |
| 2026-05-01 10:41 | 42.06912 | 12.40474 | 6139 ft | 265 kts | 127° |
| 2026-05-01 10:41 | 42.05582 | 12.42111 | 5779 ft | 264 kts | 152° |
| 2026-05-01 10:41 | 42.02329 | 12.43944 | 5130 ft | 241 kts | 150° |
| 2026-05-01 10:42 | 42.00859 | 12.44979 | 4808 ft | 231 kts | 150° |
| 2026-05-01 10:42 | 41.99444 | 12.45973 | 4504 ft | 228 kts | 150° |
| 2026-05-01 10:42 | 41.98056 | 12.46938 | 4188 ft | 223 kts | 151° |
| 2026-05-01 10:42 | 41.96683 | 12.47890 | 3901 ft | 219 kts | 150° |
| 2026-05-01 10:43 | 41.95343 | 12.48821 | 3616 ft | 216 kts | 151° |
| 2026-05-01 10:43 | 41.94016 | 12.49742 | 3335 ft | 213 kts | 151° |
| 2026-05-01 10:43 | 41.92732 | 12.50632 | 3074 ft | 202 kts | 151° |
| 2026-05-01 10:43 | 41.91495 | 12.51488 | 2791 ft | 198 kts | 150° |
| 2026-05-01 10:44 | 41.90297 | 12.52318 | 2534 ft | 188 kts | 151° |
| 2026-05-01 10:44 | 41.89162 | 12.53104 | 2279 ft | 179 kts | 151° |
| 2026-05-01 10:44 | 41.88097 | 12.53841 | 2048 ft | 167 kts | 150° |
| 2026-05-01 10:44 | 41.87181 | 12.54475 | 1840 ft | 156 kts | 150° |
| 2026-05-01 10:45 | 41.86240 | 12.55125 | 1646 ft | 148 kts | 152° |
| 2026-05-01 10:45 | 41.85335 | 12.55752 | 1446 ft | 145 kts | 152° |
| 2026-05-01 10:45 | 41.84449 | 12.56364 | 1237 ft | 142 kts | 150° |
| 2026-05-01 10:45 | 41.83576 | 12.56967 | 1037 ft | 141 kts | 149° |
| 2026-05-01 10:46 | 41.82708 | 12.57574 | 802 ft | 139 kts | 149° |
| 2026-05-01 10:46 | 41.81855 | 12.58157 | 573 ft | 136 kts | 150° |
| 2026-05-01 10:46 | 41.81021 | 12.58734 | 424 ft | 134 kts | 149° |
| 2026-05-01 10:46 | 41.80210 | 12.59293 | 387 ft | 122 kts | 149° |
| 2026-05-01 10:47 | 41.79589 | 12.59725 | 403 ft | 66 kts | 153° |
| 2026-05-01 10:47 | 41.79436 | 12.59828 | 413 ft | 0 kts | 154° |